Miscellaneous Local Product
Issued by NWS

Current Version | Previous Version | Text Only | Print | Product List | Glossary On
Versions: 1 2 3 4 5 6 7 8 9 10 11 12 13 14 15 16 17 18 19 20 21 22 23 24 25 26 27 28 29 30 31 32 33 34 35 36 37 38 39 40 41 42 43 44 45 46 47 48 49 50
000
AXUS44 KLUB 060505
MISWTM

METAR KARS 060500Z 34006KT 15/14 A3025 RMK A01 SLP194 T01550143 RH92% DA3800
METAR KAD1 060500Z 00000KT 14/10 A3033 RMK A01 SLP198 T01390104 RH79% DA4700
METAR KAI1 060500Z 01007KT 16/14 A3026 RMK A01 SLP198 T01570136 RH87% DA3800
METAR KAL1 060500Z 00000KT 17/06 A3015 RMK A01 SLP195 T01670064 RH51% DA1600
METAR KAM3 060500Z 00000KT 15/11 A3029 RMK A01 SLP211 T01530110 RH75% DA3700
METAR KAM1 060500Z 00005KT 15/13 A3029 RMK A01 SLP206 T01450134 RH93% DA4000
METAR KAM2 060500Z 00000KT 15/13 A3029 RMK A01 SLP209 T01450133 RH92% DA3700
METAR KAMH 060500Z 24005KT 15/14 A3030 RMK A01 SLP202 T01480141 RH96% DA4100
METAR KANS 060500Z 36011KT 16/14 A3023 RMK A01 SLP187 T01650141 RH86% DA3700
METAR KAOS 060500Z 29011KT 15/14 A3027 RMK A01 SLP198 T01540142 RH93% DA3900
METAR KASR 060500Z 29003KT 16/11 A3017 RMK A01 SLP196 T01610110 RH72% DA2000
METAR KBI1 060500Z 25003KT 19/12 A3021 RMK A01 SLP189 T01900123 RH65% DA3500
METAR KBO1 060500Z 00000KT 13/13 A3034 RMK A01 SLP193 T01310131 RH100% DA4800
METAR KBO2 060500Z 00000KT 18/10 A3028 RMK A01 SLP207 T01790099 RH60% DA3800
METAR KBY1 060500Z 00000KT 15/12 A3030 RMK A01 SLP215 T01540124 RH82% DA3600
METAR KBWS 060500Z 29008KT 16/14 A3028 RMK A01 SLP207 T01560144 RH93% DA3800
METAR KCA1 060500Z 00000KT 18/11 A3021 RMK A01 SLP199 T01800114 RH65% DA3000
METAR KQU1 060500Z 29007KT 18/13 A3023 RMK A01 SLP201 T01820132 RH73% DA3300
METAR KCA2 282250Z 00000KT 33/16 A2977 RMK A01 SLP081 T03340163 RH36% DA5000
METAR KCXS 060500Z 01008KT 21/12 A3019 RMK A01 SLP200 T02120115 RH54% DA2800
METAR KCES 060500Z 31005KT 17/11 A3025 RMK A01 SLP202 T01710110 RH69% DA3400
METAR KCL1 060500Z 35006KT 16/12 A3027 RMK A01 SLP201 T01560115 RH77% DA3900
METAR KCL2 060500Z 14008KT 21/06 A3019 RMK A01 SLP197 T02120064 RH38% DA2900
METAR KCO2 060500Z 05003KT 17/12 A3019 RMK A01 SLP196 T01700122 RH74% DA2700
METAR KCO3 060500Z 00000KT 19/13 A3018 RMK A01 SLP201 T01920125 RH65% DA2200
METAR KCO1 060500Z 12005KT 18/15 A3022 RMK A01 SLP195 T01800148 RH82% DA3200
METAR KCR2 060500Z 01006KT 20/14 A3019 RMK A01 SLP187 T02010143 RH69% DA3500
METAR KCR1 060500Z 35008KT 19/11 A3018 RMK A01 SLP203 T01920108 RH58% DA2100
METAR KDC1 060500Z 30008KT 17/14 A3025 RMK A01 SLP178 T01740138 RH80% DA4500
METAR KDVS 060500Z 02004KT -RA 14/14 A3028 RMK A01 SLP200 T01420138 P0001 RH97% DA4000
METAR KDMS 060500Z 01004KT 14/13 A3028 RMK A01 SLP191 T01410129 RH92% DA4300
METAR KDO2 060500Z 09004KT 17/04 A3014 RMK A01 SLP193 T01720036 RH40% DA2000
METAR KDR1 060500Z 14009KT 13/12 A3033 RMK A01 SLP191 T01330119 RH94% DA4700
METAR KDO1 060500Z 00000KT 20/11 A3023 RMK A01 SLP207 T01970108 RH56% DA3000
METAR KDU1 060500Z 34009KT 15/11 A3029 RMK A01 SLP204 T01510113 RH78% DA4000
METAR KEA1 060500Z 19011KT 14/14 A3032 RMK A01 SLP205 T01400140 RH100% DA4100
METAR KEN1 060500Z 00000KT 14/14 A3032 RMK A01 SLP205 T01420140 RH98% DA4300
METAR KES1 060500Z 25006KT 22/11 A3019 RMK A01 SLP199 T02210108 RH49% DA2900
METAR KFLS 060500Z 01005KT 16/14 A3024 RMK A01 SLP198 T01610139 RH87% DA3700
METAR KFVS 060500Z 02006KT 17/11 A3020 RMK A01 SLP190 T01690108 RH67% DA3300
METAR KCH1 060500Z 03004KT 19/06 A3017 RMK A01 SLP191 T01950060 RH41% DA2700
METAR KLA1 060500Z 29003KT 20/10 A3017 RMK A01 SLP191 T01960105 RH56% DA2900
METAR KFL1 060500Z 05006KT 07/07 A3045 RMK A01 SLP111 T00740074 RH100% DA8100
METAR KMC1 060500Z 00000KT 17/08 A3018 RMK A01 SLP193 T01740079 RH54% DA2700
METAR KFAS 060500Z 35004KT 13/12 A3030 RMK A01 SLP194 T01320125 RH95% DA4300
METAR KFR1 060500Z 00000KT 18/11 A3028 RMK A01 SLP208 T01770106 RH63% DA3800
METAR KGGS 060500Z 35005KT 17/12 A3020 RMK A01 SLP193 T01710115 RH69% DA3100
METAR KGDS 060500Z 07004KT 21/11 A3018 RMK A01 SLP199 T02150113 RH54% DA2500
METAR KGO1 060500Z 29007KT 16/11 A3028 RMK A01 SLP208 T01630114 RH73% DA3700
METAR KGHS 060500Z 00006KT 16/11 A3021 RMK A01 SLP190 T01590113 RH74% DA3300
METAR KGU1 060500Z 06007KT 13/11 A3032 RMK A01 SLP150 T01270107 RH87% DA6200
METAR KPFS 060500Z 02005KT 20/11 A3017 RMK A01 SLP192 T02000109 RH56% DA2800
METAR KHA3 060500Z 34004KT 19/13 A3018 RMK A01 SLP201 T01880131 RH69% DA2400
METAR KHA2 060500Z 01008KT 15/13 A3028 RMK A01 SLP200 T01470133 RH91% DA4000
METAR KHRS 060500Z 01003KT 14/13 A3029 RMK A01 SLP197 T01430133 RH94% DA4100
METAR KHA1 060500Z 01005KT 17/11 A3015 RMK A01 SLP192 T01730114 RH68% DA2000
METAR KHE1 060500Z 08004KT 21/09 A3016 RMK A01 SLP199 T02060088 RH46% DA2200
METAR KHES 060500Z 34005KT 14/13 A3030 RMK A01 SLP200 T01370126 RH94% DA4200
METAR KHO1 060500Z 04005KT 15/14 A3028 RMK A01 SLP196 T01470140 RH96% DA4100
METAR KPD3 060500Z 33004KT 18/12 A3024 RMK A01 SLP205 T01820122 RH68% DA3200
METAR KJTS 060500Z 00000KT 17/11 A3018 RMK A01 SLP195 T01650110 RH70% DA2400
METAR KJU1 060500Z 00000KT 15/07 A3017 RMK A01 SLP200 T01530072 RH58% DA1900
METAR KKE1 060500Z 00000KT 15/11 A3026 RMK A01 SLP175 T01520112 RH77% DA4600
METAR KKN1 060500Z 00000KT 19/13 A3016 RMK A01 SLP198 T01860128 RH69% DA2000
METAR KAHS 060500Z 30004KT 17/12 A3020 RMK A01 SLP196 T01660116 RH72% DA2800
METAR KMC5 060500Z 00004KT 18/10 A3027 RMK A01 SLP202 T01820099 RH58% DA3900
METAR KLES 060500Z 32008KT 18/14 A3025 RMK A01 SLP196 T01790136 RH76% DA3600
METAR KLE1 060500Z 35008KT 18/15 A3021 RMK A01 SLP204 T01840145 RH78% DA2800
METAR KLD1 060500Z 29010KT 15/14 A3028 RMK A01 SLP200 T01480138 RH94% DA3900
METAR KLI1 060500Z 00000KT 19/10 A3024 RMK A01 SLP208 T01920103 RH56% DA3400
METAR KLO1 060500Z 31010KT 21/12 A3021 RMK A01 SLP195 T02050117 RH57% DA3400
METAR KMC6 060500Z 01006KT 19/11 A3023 RMK A01 SLP195 T01870108 RH60% DA3800
METAR KMC4 060500Z 26004KT 20/13 A3020 RMK A01 SLP192 T02010133 RH65% DA3300
METAR KMCS 060500Z 03004KT 19/10 A3024 RMK A01 SLP197 T01860101 RH60% DA3600
METAR KMES 060500Z 35005KT 21/12 A3022 RMK A01 SLP207 T02070122 RH58% DA2900
METAR KMD1 060500Z 00000KT 16/07 A3017 RMK A01 SLP197 T01560071 RH57% DA2200
METAR KME1 060500Z 18003KT 19/07 A3019 RMK A01 SLP195 T01900072 RH46% DA2900
METAR KMI1 060500Z 00000KT 20/11 A3024 RMK A01 SLP204 T01950106 RH56% DA3500
METAR KMNS 060500Z 24003KT -RA 15/14 A3031 RMK A01 SLP205 T01450139 P0001 RH96% DA4100
METAR KMUS 060500Z 19013KT RA 14/13 A3032 RMK A01 SLP204 T01400132 P0011 RH99% DA4100
METAR KNE1 060500Z 35005KT 15/14 A3024 RMK A01 SLP193 T01540139 RH90% DA3700
METAR KNH1 060500Z 29007KT 16/15 A3027 RMK A01 SLP205 T01610154 RH95% DA3800
METAR KNOR 060455Z 31004KT 19/14 A3019 RMK A01 SLP197 T01890138 RH72% DA2700
METAR KLBW 060500Z 30008KT 16/14 A3026 RMK A01 SLP198 T01550138 RH90% DA3700
METAR KASU 060500Z 11003KT 18/06 A3016 RMK A01 SLP190 T01840059 RH44% DA2600
METAR KOES 060500Z 31009KT 18/13 A3025 RMK A01 SLP198 T01770132 RH75% DA3700
METAR KOD1 060500Z 33003KT 20/09 A3017 RMK A01 SLP204 T02030089 RH48% DA2000
METAR KONS 060500Z 00000KT 15/14 A3027 RMK A01 SLP194 T01500141 RH94% DA4000
METAR KPAD 060500Z 33007KT 19/12 A3020 RMK A01 SLP203 T01890122 RH65% DA2600
METAR KPD2 060500Z 00000KT 15/15 A3026 RMK A01 SLP211 T01500150 RH100% DA3100
METAR KPD1 060500Z 00000KT 16/11 A3029 RMK A01 SLP207 T01580113 RH74% DA4000
METAR KPD4 060500Z 33008KT 16/11 A3027 RMK A01 SLP210 T01610113 RH73% DA3500
METAR KPMS 060500Z 00000KT 17/10 A3027 RMK A01 SLP201 T01720100 RH62% DA3800
METAR KPA1 060500Z 30004KT 15/11 A3029 RMK A01 SLP206 T01510113 RH78% DA3900
METAR KPA2 060500Z 30004KT 15/11 A3029 RMK A01 SLP206 T01490108 RH76% DA3900
METAR KPG1 060500Z 03012KT 22/12 A3016 RMK A01 SLP168 T02190120 RH53% DA4100
METAR KPPS 060500Z 31005KT 15/14 A3029 RMK A01 SLP204 T01450139 RH100% DA4100
METAR KPVS 060500Z 01005KT 16/13 A3026 RMK A01 SLP201 T01590127 RH81% DA3900
METAR KPT1 060500Z 33004KT 17/12 A3020 RMK A01 SLP194 T01660117 RH72% DA3100
METAR KRLS 060500Z 02005KT 17/13 A3023 RMK A01 SLP193 T01680127 RH76% DA3700
METAR KREE 060500Z 32009KT 15/14 A3026 RMK A01 SLP200 T01550137 RH89% DA3800
METAR KRRS 060500Z 34008KT 19/11 A3021 RMK A01 SLP194 T01940113 RH59% DA3400
METAR KBR1 060500Z 02007KT 14/12 A3032 RMK A01 SLP208 T01420117 RH85% DA4400
METAR KRO1 060500Z 29004KT 17/11 A3019 RMK A01 SLP197 T01710110 RH67% DA2500
METAR KST1 060500Z 19005KT 19/13 A3019 RMK A01 SLP182 T01950126 RH65% DA3600
METAR KSGV 060500Z 34007KT 15/14 A3028 RMK A01 SLP206 T01540144 RH94% DA3800
METAR KSE2 060500Z 00000KT 19/09 A3019 RMK A01 SLP197 T01860089 RH53% DA2900
METAR KSM1 060500Z 35009KT 15/15 A3026 RMK A01 SLP200 T01530145 RH95% DA3800
METAR KSE1 060500Z 15004KT 20/07 A3015 RMK A01 SLP197 T02050072 RH42% DA2000
METAR KSB1 060500Z 10008KT 17/11 A3026 RMK A01 SLP158 T01660109 RH69% DA5400
METAR KSVS 060500Z 34004KT 16/13 A3025 RMK A01 SLP196 T01570133 RH86% DA3700
METAR KSLS 060500Z 04005KT 17/11 A3023 RMK A01 SLP194 T01740115 RH68% DA3700
METAR KSM2 060500Z 28007KT -RA 15/14 A3028 RMK A01 SLP203 T01540138 P0001 RH90% DA3900
METAR KSYS 060500Z 03010KT 18/11 A3018 RMK A01 SLP186 T01830112 RH63% DA3100
METAR KWT1 060500Z 02006KT 18/12 A3019 RMK A01 SLP193 T01760118 RH69% DA3000
METAR KSP2 060500Z 01004KT 16/13 A3024 RMK A01 SLP195 T01640134 RH82% DA3700
METAR KLB1 060500Z 28007KT 17/13 A3026 RMK A01 SLP199 T01670131 RH79% DA3800
METAR KSP1 060500Z 00004KT 19/10 A3018 RMK A01 SLP189 T01940098 RH54% DA3100
METAR KST2 060500Z 03006KT 18/10 A3016 RMK A01 SLP196 T01850103 RH59% DA2100
METAR KSC1 060500Z 11006KT 22/05 A3018 RMK A01 SLP187 T02220055 RH34% DA3500
METAR KST3 060500Z 35006KT 17/10 A3029 RMK A01 SLP206 T01700097 RH62% DA3900
METAR KST4 060500Z 31006KT 12/11 A3032 RMK A01 SLP217 T01160107 RH94% DA3800
METAR KSDS 060500Z 27006KT 14/14 A3029 RMK A01 SLP206 T01440140 RH97% DA4000
METAR KSU1 060500Z 32005KT 15/13 A3031 RMK A01 SLP210 T01490128 RH87% DA3900
METAR KSW1 060500Z 06007KT 18/10 A3021 RMK A01 SLP196 T01820104 RH60% DA3100
METAR KTAS 060500Z 29008KT 17/12 A3025 RMK A01 SLP197 T01700120 RH72% DA3700
METAR KTA1 060500Z 34009KT 19/13 A3023 RMK A01 SLP194 T01870133 RH71% DA3600
METAR KTAT 060500Z 07006KT 14/13 A3029 RMK A01 SLP194 T01410131 RH98% DA4400
METAR KTE1 060500Z 33007KT 12/10 A3036 RMK A01 SLP202 T01170102 RH91% DA4900
METAR KTH1 060500Z 00000KT 19/09 A3015 RMK A01 SLP196 T01890092 RH53% DA1900
METAR KTR1 060500Z 34005KT 19/12 A3017 RMK A01 SLP200 T01900120 RH64% DA2100
METAR KTIS 060500Z 00000KT 15/14 A3028 RMK A01 SLP201 T01490136 RH92% DA3900
METAR KTUR 060500Z 32009KT 18/13 A3020 RMK A01 SLP197 T01820135 RH74% DA3100
METAR KUM1 060500Z 34005KT 13/13 A3030 RMK A01 SLP203 T01350127 RH95% DA4100
METAR KVA1 060500Z 05005KT 17/12 A3025 RMK A01 SLP176 T01690123 RH74% DA4800
METAR KVE1 060500Z 34003KT 14/10 A3032 RMK A01 SLP203 T01350097 RH78% DA4300
METAR KVP1 060500Z 34005KT 15/13 A3027 RMK A01 SLP202 T01490132 RH90% DA3800
METAR KWA1 060500Z 17007KT 18/06 A3017 RMK A01 SLP194 T01760062 RH47% DA2400
METAR KWE1 060500Z 00000KT 18/11 A3016 RMK A01 SLP198 T01840106 RH60% DA2000
METAR KWE2 060500Z 30011KT 17/14 A3027 RMK A01 SLP202 T01650142 RH86% DA3700
METAR KWE3 060500Z 34008KT 22/10 A3020 RMK A01 SLP201 T02210103 RH47% DA3000
METAR KWVS 060500Z 35009KT 19/11 A3020 RMK A01 SLP190 T01880111 RH61% DA3500
METAR KWOS 060500Z 30010KT 16/14 A3027 RMK A01 SLP200 T01570138 RH88% DA3800

&&


USA.gov is the U.S. government's official web portal to all federal, state and local government web resources and services.